createdAt,value
2023-03-10T00:01:02.378Z,31.4
2023-03-10T00:06:39.984Z,30.1
2023-03-10T00:12:34.609Z,28.3
2023-03-10T00:18:27.872Z,33.1
2023-03-10T00:24:20.081Z,31.8
2023-03-10T00:29:58.115Z,30.3
2023-03-10T00:35:36.584Z,29.3
2023-03-10T00:41:30.748Z,31.8
2023-03-10T00:47:08.643Z,33.1
2023-03-10T00:52:44.866Z,30.8
2023-03-10T00:58:22.834Z,29.8
2023-03-10T01:04:31.283Z,27.8
2023-03-10T01:10:24.262Z,33.2
2023-03-10T01:16:17.796Z,31.8
2023-03-10T01:21:55.334Z,30.3
2023-03-10T01:27:31.845Z,29.3
2023-03-10T01:33:10.719Z,31
2023-03-10T01:38:34.940Z,33.3
2023-03-10T01:44:26.941Z,31.1
2023-03-10T01:50:20.339Z,29.9
2023-03-10T01:56:13.363Z,28.9
2023-03-10T02:02:06.254Z,32.6
2023-03-10T02:07:28.841Z,32.3
2023-03-10T02:12:54.875Z,30.5
2023-03-10T02:18:32.269Z,29.6
2023-03-10T02:24:34.252Z,28.2
2023-03-10T02:30:38.320Z,33.3
2023-03-10T02:36:15.325Z,31.3
2023-03-10T02:41:53.417Z,30
2023-03-10T02:47:31.054Z,29.1
2023-03-10T02:53:08.201Z,30.7
2023-03-10T02:58:46.578Z,33.4
2023-03-10T03:04:23.747Z,31.1
2023-03-10T03:09:44.786Z,29.9
2023-03-10T03:15:24.179Z,29
2023-03-10T03:21:17.796Z,31.3
2023-03-10T03:26:39.223Z,33.1
2023-03-10T03:32:35.634Z,30.9
2023-03-10T03:38:13.643Z,29.7
2023-03-10T03:44:06.363Z,28.8
2023-03-10T03:50:02.464Z,32.1
2023-03-10T03:55:55.385Z,32.7
2023-03-10T04:01:32.050Z,30.4
2023-03-10T04:07:10.508Z,29.5
2023-03-10T04:13:03.029Z,27.9
2023-03-10T04:18:55.931Z,32.9
2023-03-10T04:24:33.560Z,31.9
2023-03-10T04:30:12.165Z,30.3
2023-03-10T04:36:14.032Z,29.3
2023-03-10T04:41:50.786Z,28.3
2023-03-10T04:47:55.313Z,33.1
2023-03-10T04:53:15.804Z,31.6
2023-03-10T04:58:53.326Z,30.2
2023-03-10T05:04:55.166Z,29.3
2023-03-10T05:10:50.013Z,29.4
2023-03-10T05:16:42.340Z,33.6
2023-03-10T05:22:19.929Z,31.3
2023-03-10T05:27:42.781Z,30
2023-03-10T05:33:20.667Z,29.1
2023-03-10T05:38:57.895Z,29.2
2023-03-10T05:44:50.165Z,33.3
2023-03-10T05:50:45.692Z,31.5
2023-03-10T05:56:23.467Z,30.1
2023-03-10T06:01:59.808Z,29.1
2023-03-10T06:07:57.322Z,28.2
2023-03-10T06:13:50.780Z,27.3
2023-03-10T06:19:44.123Z,31.6
2023-03-10T06:25:37.252Z,31
2023-03-10T06:31:30.184Z,29.9
2023-03-10T06:37:07.690Z,28.9
2023-03-10T06:42:46.429Z,27.9
2023-03-10T06:48:25.888Z,27.1
2023-03-10T06:54:02.521Z,26.3
2023-03-10T06:59:24.733Z,30.1
2023-03-10T07:05:02.450Z,32
2023-03-10T07:10:41.432Z,30.4
2023-03-10T07:16:35.378Z,29.4
2023-03-10T07:22:13.478Z,28.4
2023-03-10T07:28:07.425Z,27.6
2023-03-10T07:34:00.445Z,26.6
2023-03-10T07:39:53.813Z,31.6
2023-03-10T07:45:47.611Z,31.3
2023-03-10T07:51:25.008Z,30
2023-03-10T07:57:03.320Z,29.1
2023-03-10T08:02:55.212Z,28.1
2023-03-10T08:08:49.417Z,27.3
2023-03-10T08:14:43.515Z,31.5
2023-03-10T08:20:21.488Z,31.4
2023-03-10T08:25:43.776Z,30.1
2023-03-10T08:31:53.081Z,29.1
2023-03-10T08:37:35.275Z,28.2
2023-03-10T08:43:37.397Z,29.4
2023-03-10T08:49:18.690Z,32.3
2023-03-10T08:54:58.232Z,30.4
2023-03-10T09:00:52.744Z,29.4
2023-03-10T09:06:49.949Z,28.5
2023-03-10T09:12:46.594Z,27.6
2023-03-10T09:18:52.274Z,30.9
2023-03-10T09:24:46.552Z,31.8
2023-03-10T09:30:51.205Z,30.1
2023-03-10T09:36:41.946Z,29.1
2023-03-10T09:42:53.114Z,28.2
2023-03-10T09:48:45.233Z,30
2023-03-10T09:54:41.152Z,32.3
2023-03-10T10:00:40.635Z,30.3
2023-03-10T10:06:44.668Z,29.4
2023-03-10T10:12:46.072Z,28.4
2023-03-10T10:19:43.010Z,27.6
2023-03-10T10:25:43.825Z,33.1
2023-03-10T10:31:39.690Z,30.7
2023-03-10T10:37:40.226Z,29.6
2023-03-10T10:43:21.643Z,28.6
2023-03-10T10:54:53.026Z,32.4
2023-03-10T11:00:46.721Z,31.3
2023-03-10T11:06:39.946Z,30
2023-03-10T11:12:17.809Z,29.1
2023-03-10T11:17:54.876Z,28.2
2023-03-10T11:23:49.894Z,26.5
2023-03-10T11:29:43.071Z,33.1
2023-03-10T11:35:36.352Z,31.2
2023-03-10T11:41:21.951Z,30.1
2023-03-10T11:47:15.155Z,29.1
2023-03-10T11:53:05.797Z,28.3
2023-03-10T11:58:59.285Z,27.4
2023-03-10T12:04:53.486Z,26.6
2023-03-10T12:10:31.125Z,26.1
2023-03-10T12:16:25.419Z,32.8
2023-03-10T12:22:18.349Z,31.1
2023-03-10T12:28:10.145Z,29.9
2023-03-10T12:34:03.263Z,28.9
2023-03-10T12:39:41.818Z,28
2023-03-10T12:45:35.206Z,29.3
2023-03-10T12:51:29.011Z,32.6
2023-03-10T12:57:22.910Z,30.5
2023-03-10T13:03:07.728Z,29.4
2023-03-10T13:08:44.999Z,28.6
2023-03-10T13:14:23.390Z,26.8
2023-03-10T13:20:16.350Z,33
2023-03-10T13:25:38.011Z,31.1
2023-03-10T13:31:18.409Z,30.1
2023-03-10T13:37:10.137Z,29.1
2023-03-10T13:43:00.429Z,28.2
2023-03-10T13:48:53.785Z,27.3
2023-03-10T13:54:44.697Z,26.6
2023-03-10T14:00:36.594Z,32.1
2023-03-10T14:06:33.550Z,31.6
2023-03-10T14:12:26.892Z,30.3
2023-03-10T14:23:42.122Z,28.5
2023-03-10T14:28:49.657Z,27.6
2023-03-10T14:34:31.107Z,26.8
2023-03-10T14:40:09.432Z,26.1
2023-03-10T14:46:01.908Z,25.4
2023-03-10T14:52:08.329Z,24.8
2023-03-10T14:58:01.990Z,24.3
2023-03-10T15:03:55.969Z,23.9
2023-03-10T15:09:43.856Z,23.5
2023-03-10T15:16:01.380Z,23.2
2023-03-10T15:21:39.100Z,22.9
2023-03-10T15:27:30.623Z,22.7
2023-03-10T15:33:24.430Z,22.5
2023-03-10T15:39:30.910Z,22.3
2023-03-10T15:45:25.344Z,22.1
2023-03-10T15:51:19.003Z,22.1
2023-03-10T15:57:11.398Z,21.9
2023-03-10T16:03:03.911Z,21.8
2023-03-10T16:08:57.151Z,21.7
2023-03-10T16:14:50.052Z,21.6
2023-03-10T16:20:27.856Z,21.5
2023-03-10T16:26:05.476Z,21.4
2023-03-10T16:31:58.720Z,21.4
2023-03-10T16:37:51.476Z,21.3
2023-03-10T16:43:45.550Z,21.2
2023-03-10T16:49:06.917Z,21.1
2023-03-10T16:53:56.992Z,21
2023-03-10T16:59:19.607Z,21
2023-03-10T17:04:57.285Z,21
2023-03-10T17:11:00.759Z,20.9
2023-03-10T17:16:55.040Z,20.9
2023-03-10T17:22:33.208Z,20.9
2023-03-10T17:28:27.656Z,20.8
2023-03-10T17:34:21.845Z,20.8
2023-03-10T17:40:13.890Z,20.8
2023-03-10T17:46:20.227Z,20.7
2023-03-10T17:52:13.422Z,20.7
2023-03-10T17:57:50.758Z,20.6
2023-03-10T18:03:46.358Z,20.6
2023-03-10T18:09:39.663Z,20.6
2023-03-10T18:15:31.586Z,20.6
2023-03-10T18:21:24.014Z,20.6
2023-03-10T18:27:01.582Z,20.5
2023-03-10T18:32:54.395Z,20.5
2023-03-10T18:38:47.997Z,20.4
2023-03-10T18:44:41.162Z,20.4
2023-03-10T18:50:17.895Z,20.4
2023-03-10T18:56:10.480Z,20.4
2023-03-10T19:01:48.008Z,20.4
2023-03-10T19:07:40.186Z,20.4
2023-03-10T19:13:34.750Z,20.4
2023-03-10T19:19:28.243Z,20.4
2023-03-10T19:25:21.390Z,20.3
2023-03-10T19:31:14.172Z,20.3
2023-03-10T19:36:53.027Z,20.3
2023-03-10T19:42:14.191Z,20.3
2023-03-10T19:48:07.755Z,20.3
2023-03-10T19:54:01.010Z,20.3
2023-03-10T19:59:38.474Z,20.2
2023-03-10T20:05:17.285Z,20.2
2023-03-10T20:10:54.753Z,20.2
2023-03-10T20:16:47.012Z,20.2
2023-03-10T20:22:39.537Z,20.1
2023-03-10T20:28:01.439Z,20.1
2023-03-10T20:33:38.883Z,20.1
2023-03-10T20:39:31.522Z,24.4
2023-03-10T20:45:10.142Z,31.5
2023-03-10T20:51:03.276Z,32.8
2023-03-10T20:56:55.850Z,31.1
2023-03-10T21:02:49.443Z,32.4
2023-03-10T21:08:27.428Z,31.6
2023-03-10T21:14:04.186Z,30.4
2023-03-10T21:19:57.541Z,29.6
2023-03-10T21:24:50.329Z,28.7
2023-03-10T21:30:43.520Z,28
2023-03-10T21:36:36.343Z,27.1
2023-03-10T21:42:29.008Z,25.8
2023-03-10T21:48:21.609Z,31.8
2023-03-10T21:54:15.278Z,34.2
2023-03-10T21:59:52.460Z,31.9
2023-03-10T22:05:29.269Z,30
2023-03-10T22:11:21.706Z,33.6
2023-03-10T22:17:14.007Z,32.1
2023-03-10T22:22:50.425Z,30.6
2023-03-10T22:28:43.374Z,30.4
2023-03-10T22:34:36.198Z,33.9
2023-03-10T22:40:13.080Z,31.8
2023-03-10T22:45:34.899Z,30.5
2023-03-10T22:51:13.260Z,28.4
2023-03-10T22:57:05.482Z,33.1
2023-03-10T23:02:12.855Z,32.5
2023-03-10T23:08:05.354Z,30.9
2023-03-10T23:13:41.558Z,29.9
2023-03-10T23:19:48.725Z,30.2
2023-03-10T23:25:26.219Z,34.1
2023-03-10T23:31:18.484Z,31.6
2023-03-10T23:36:56.975Z,30.3
2023-03-10T23:42:02.472Z,29.3
2023-03-10T23:53:18.807Z,33.4
2023-03-10T23:59:12.090Z,31.3
